Time;durP1;ratioP1;P1;durP2;ratioP2;P2;SDS_P1;SDS_P2;PMS_P1;PMS_P2;Temp;Humidity;BMP_temperature;BMP_pressure;BME280_temperature;BME280_humidity;BME280_pressure;Samples;Min_cycle;Max_cycle;Signal;HPM_P1;HPM_P2
2021/12/17 00:05:13;;;;;;;19.70;5.53;;;;;;;4.27;100.00;103563.84;5092927;28;20035;-76
2021/12/17 00:07:40;;;;;;;21.15;6.07;;;;;;;4.30;100.00;103571.69;5111195;28;20047;-76
2021/12/17 00:10:17;;;;;;;14.18;5.43;;;;;;;4.29;100.00;103568.19;5093319;28;20038;-76
2021/12/17 00:12:43;;;;;;;15.23;5.65;;;;;;;4.37;100.00;103578.47;5111199;28;20375;-76
2021/12/17 00:15:09;;;;;;;17.73;6.50;;;;;;;4.35;100.00;103572.38;5092936;28;20032;-76
2021/12/17 00:17:36;;;;;;;14.98;5.25;;;;;;;4.42;100.00;103581.84;5093126;28;20040;-76
2021/12/17 00:50:19;;;;;;;13.95;5.88;;;;;;;4.50;100.00;103571.84;5110414;28;20063;-76
2021/12/17 00:52:40;;;;;;;18.60;5.65;;;;;;;4.52;100.00;103564.75;5109348;28;20369;-76
2021/12/17 00:55:08;;;;;;;17.85;7.45;;;;;;;4.52;100.00;103566.50;5075327;28;20020;-76
2021/12/17 00:57:45;;;;;;;18.63;6.97;;;;;;;4.60;100.00;103575.91;5110711;28;20039;-77
2021/12/17 01:00:17;;;;;;;25.98;5.32;;;;;;;4.59;100.00;103562.75;5092184;28;20035;-77
2021/12/17 01:02:43;;;;;;;20.67;5.60;;;;;;;4.62;100.00;103568.78;5092141;28;20506;-76
2021/12/17 01:05:23;;;;;;;19.13;7.13;;;;;;;4.59;100.00;103560.09;5091789;28;20024;-77
2021/12/17 01:07:52;;;;;;;27.95;7.70;;;;;;;4.61;100.00;103550.28;5092010;28;20046;-76
2021/12/17 01:10:25;;;;;;;29.30;7.30;;;;;;;4.63;100.00;103544.03;5092098;28;20555;-77
2021/12/17 01:12:58;;;;;;;26.50;6.45;;;;;;;4.67;100.00;103538.63;5091910;28;20115;-77
2021/12/17 01:15:40;;;;;;;22.75;6.40;;;;;;;4.65;100.00;103528.09;5076784;28;20055;-76
2021/12/17 01:18:17;;;;;;;27.27;7.28;;;;;;;4.55;100.00;103526.72;5076286;28;20024;-77
2021/12/17 01:21:23;;;;;;;32.47;8.65;;;;;;;4.71;100.00;103550.84;5077143;28;20024;-77
2021/12/17 01:24:13;;;;;;;35.33;7.95;;;;;;;4.71;100.00;103541.13;5075509;28;20056;-77
2021/12/17 01:35:57;;;;;;;22.80;6.85;;;;;;;4.61;100.00;103518.53;5091490;28;20027;-77
2021/12/17 01:40:06;;;;;;;31.60;8.02;;;;;;;4.56;100.00;103529.28;5091378;28;20468;-77
2021/12/17 01:43:49;;;;;;;23.45;5.85;;;;;;;4.49;100.00;103529.56;5091106;28;20054;-77
2021/12/17 01:46:21;;;;;;;15.82;6.32;;;;;;;4.56;100.00;103541.66;5074421;28;20031;-77
2021/12/17 01:49:06;;;;;;;28.13;8.07;;;;;;;4.62;100.00;103542.31;5074605;28;20043;-77
2021/12/17 01:59:46;;;;;;;32.40;8.40;;;;;;;4.70;100.00;103535.88;5090740;28;20031;-77
2021/12/17 02:02:12;;;;;;;15.18;6.38;;;;;;;4.68;100.00;103532.41;5091249;28;20360;-77
2021/12/17 02:04:38;;;;;;;39.20;7.63;;;;;;;4.68;100.00;103527.97;5090861;28;20038;-77
2021/12/17 02:07:04;;;;;;;18.83;6.95;;;;;;;4.69;100.00;103524.44;5091371;28;20388;-77
2021/12/17 02:20:39;;;;;;;21.55;7.80;;;;;;;4.64;100.00;103506.06;5090788;28;20417;-77
2021/12/17 02:31:33;;;;;;;19.42;6.18;;;;;;;4.66;100.00;103508.69;5091013;28;20401;-77
2021/12/17 02:34:16;;;;;;;27.10;7.18;;;;;;;4.64;100.00;103508.72;5089768;28;20073;-76
2021/12/17 02:36:44;;;;;;;22.75;5.65;;;;;;;4.62;100.00;103510.56;5090670;28;20539;-76
2021/12/17 02:39:44;;;;;;;19.48;6.47;;;;;;;4.71;100.00;103521.75;5090943;28;20038;-77
2021/12/17 02:47:27;;;;;;;24.40;6.72;;;;;;;4.63;100.00;103504.31;5090375;28;20422;-77
2021/12/17 02:49:53;;;;;;;20.83;6.77;;;;;;;4.73;100.00;103517.22;5090714;28;20053;-77
2021/12/17 02:52:19;;;;;;;28.98;7.45;;;;;;;4.69;100.00;103505.91;5090755;28;20040;-77
2021/12/17 02:54:46;;;;;;;23.35;7.13;;;;;;;4.70;100.00;103506.75;5090203;28;20456;-77
2021/12/17 02:57:12;;;;;;;21.50;6.68;;;;;;;4.74;100.00;103513.69;5090747;28;20027;-77
2021/12/17 02:59:38;;;;;;;17.63;6.25;;;;;;;4.75;100.00;103515.38;5090534;28;20020;-77
2021/12/17 03:02:07;;;;;;;23.33;6.80;;;;;;;4.79;100.00;103515.22;5090558;28;20536;-77
2021/12/17 03:04:39;;;;;;;30.63;7.00;;;;;;;4.79;100.00;103495.84;5073774;28;20544;-77
2021/12/17 03:07:05;;;;;;;19.88;6.70;;;;;;;4.70;100.00;103475.00;5090408;28;20042;-78
2021/12/17 03:09:55;;;;;;;22.42;5.80;;;;;;;4.68;100.00;103488.28;5090419;28;20416;-77
2021/12/17 03:12:31;;;;;;;19.80;5.68;;;;;;;4.71;100.00;103498.78;5093659;28;20039;-76
2021/12/17 03:15:18;;;;;;;22.98;6.50;;;;;;;4.65;100.00;103499.84;5077215;28;20504;-76
2021/12/17 03:23:29;;;;;;;;;;;;;;;4.72;100.00;103499.63;5094739;28;20061;-77
2021/12/17 03:25:58;;;;;;;27.10;7.25;;;;;;;4.67;100.00;103491.00;5077250;28;20249;-77
2021/12/17 03:28:24;;;;;;;22.13;6.65;;;;;;;4.72;100.00;103502.28;5094296;28;20040;-76
2021/12/17 03:30:50;;;;;;;26.02;7.95;;;;;;;4.71;100.00;103497.91;5077258;28;20348;-76
2021/12/17 03:33:16;;;;;;;17.23;6.53;;;;;;;4.70;100.00;103496.19;5094034;28;20027;-76
2021/12/17 03:35:42;;;;;;;26.77;7.20;;;;;;;4.68;100.00;103488.28;5076903;28;20429;-77
2021/12/17 03:38:08;;;;;;;25.73;7.25;;;;;;;4.78;100.00;103512.66;5094373;28;20375;-77
2021/12/17 03:40:34;;;;;;;21.27;7.15;;;;;;;4.72;100.00;103511.06;5093713;28;20027;-77
2021/12/17 03:43:11;;;;;;;17.80;6.25;;;;;;;4.78;100.00;103520.59;5077527;28;20024;-77
2021/12/17 03:45:36;;;;;;;20.10;6.05;;;;;;;4.79;100.00;103509.06;5093521;28;20357;-77
2021/12/17 03:48:08;;;;;;;18.33;6.18;;;;;;;4.76;100.00;103494.16;5077410;28;20076;-77
2021/12/17 03:50:36;;;;;;;25.27;6.30;;;;;;;4.70;100.00;103488.25;5093646;28;20465;-77
2021/12/17 03:53:04;;;;;;;16.58;7.10;;;;;;;4.79;100.00;103498.47;5093710;28;20057;-77
2021/12/17 03:55:32;;;;;;;20.20;5.57;;;;;;;4.75;100.00;103504.81;5093239;28;20122;-76
2021/12/17 03:58:01;;;;;;;18.17;4.80;;;;;;;4.76;100.00;103511.84;5093736;28;20146;-77
2021/12/17 04:00:29;;;;;;;15.02;4.55;;;;;;;4.74;100.00;103519.81;5093647;28;20043;-76
2021/12/17 04:02:59;;;;;;;12.18;4.03;;;;;;;4.70;100.00;103520.84;5077144;28;20031;-77
2021/12/17 04:05:33;;;;;;;16.40;4.25;;;;;;;4.69;100.00;103520.94;5091944;28;20036;-77
2021/12/17 04:08:22;;;;;;;14.68;3.58;;;;;;;4.65;100.00;103514.88;5087105;28;20046;-76
2021/12/17 04:11:19;;;;;;;10.07;3.20;;;;;;;4.76;100.00;103523.28;5081443;28;20028;-77
2021/12/17 04:13:54;;;;;;;11.27;3.50;;;;;;;4.76;100.00;103530.38;5094023;28;20102;-77
2021/12/17 04:16:25;;;;;;;12.55;3.50;;;;;;;4.71;100.00;103516.44;5094240;28;20134;-77
2021/12/17 04:18:51;;;;;;;9.35;3.40;;;;;;;4.69;100.00;103518.28;5094196;28;20031;-77
2021/12/17 04:21:18;;;;;;;6.88;3.83;;;;;;;4.67;100.00;103514.81;5093843;28;20310;-76
2021/12/17 04:23:47;;;;;;;15.32;3.70;;;;;;;4.68;100.00;103520.03;5077356;28;20357;-77
2021/12/17 04:26:15;;;;;;;9.38;2.90;;;;;;;4.68;100.00;103524.47;5094062;28;20243;-76
2021/12/17 04:28:44;;;;;;;13.80;3.58;;;;;;;4.64;100.00;103519.31;5077225;28;20060;-76
2021/12/17 04:31:11;;;;;;;12.40;3.33;;;;;;;4.70;100.00;103535.88;5077281;28;20118;-77
2021/12/17 04:33:40;;;;;;;7.25;3.15;;;;;;;4.52;100.00;103510.94;5076866;28;20797;-76
2021/12/17 04:36:08;;;;;;;8.82;4.03;;;;;;;4.55;100.00;103519.63;5094125;28;20054;-76
2021/12/17 04:38:33;;;;;;;10.80;3.33;;;;;;;4.61;100.00;103537.94;5093894;28;20553;-76
2021/12/17 04:41:28;;;;;;;12.75;3.60;;;;;;;4.55;100.00;103526.72;5077134;28;20062;-77
2021/12/17 04:44:07;;;;;;;10.93;3.95;;;;;;;4.52;100.00;103525.06;5093528;28;20089;-76
2021/12/17 04:57:19;;;;;;;9.38;3.97;;;;;;;4.54;100.00;103522.31;5093708;28;20055;-77
2021/12/17 04:57:38;;;;;;;15.63;4.60;;;;;;;4.57;100.00;103517.81;5093479;28;20051;-77
2021/12/17 05:00:08;;;;;;;14.02;4.60;;;;;;;4.52;100.00;103498.59;5077182;28;20036;-77
2021/12/17 05:02:46;;;;;;;16.45;5.35;;;;;;;4.47;100.00;103495.22;5077061;28;20047;-76
2021/12/17 05:05:14;;;;;;;13.50;4.80;;;;;;;4.49;100.00;103501.31;5093123;28;20023;-76
2021/12/17 05:07:50;;;;;;;16.92;6.68;;;;;;;4.51;100.00;103518.00;5093213;28;20484;-76
2021/12/17 05:18:16;;;;;;;18.10;6.25;;;;;;;4.44;100.00;103529.72;5093275;28;20561;-76
2021/12/17 05:20:52;;;;;;;16.67;5.70;;;;;;;4.47;100.00;103526.97;5077487;28;20251;-77
2021/12/17 05:23:23;;;;;;;17.80;6.13;;;;;;;4.50;100.00;103521.59;5093169;28;20032;-76
2021/12/17 05:25:51;;;;;;;12.50;4.90;;;;;;;4.52;100.00;103524.16;5075942;28;20031;-76
2021/12/17 05:28:17;;;;;;;23.90;6.15;;;;;;;4.37;100.00;103515.84;5076228;28;20033;-77
2021/12/17 05:30:48;;;;;;;11.80;4.22;;;;;;;4.31;100.00;103509.91;5092886;28;20459;-76
2021/12/17 05:33:19;;;;;;;8.27;3.88;;;;;;;4.33;100.00;103514.25;5092189;28;20039;-76
2021/12/17 05:35:45;;;;;;;10.52;4.47;;;;;;;4.41;100.00;103528.06;5092655;28;20453;-77
2021/12/17 05:38:13;;;;;;;14.85;5.38;;;;;;;4.31;100.00;103520.50;5092854;28;20027;-77
2021/12/17 05:40:40;;;;;;;16.08;4.10;;;;;;;4.27;100.00;103530.34;5092760;28;20168;-77
2021/12/17 05:43:07;;;;;;;9.18;4.32;;;;;;;4.27;100.00;103529.47;5092326;28;20527;-77
2021/12/17 05:45:48;;;;;;;13.02;5.38;;;;;;;4.28;100.00;103526.75;5091198;28;20031;-76
2021/12/17 05:48:16;;;;;;;8.88;4.03;;;;;;;4.26;100.00;103527.72;5091132;28;20043;-76
2021/12/17 05:50:43;;;;;;;9.35;3.72;;;;;;;4.18;100.00;103528.00;5091268;28;20043;-77
2021/12/17 05:53:09;;;;;;;8.82;3.58;;;;;;;4.10;100.00;103535.34;5091258;28;20364;-76
2021/12/17 05:55:35;;;;;;;7.30;3.35;;;;;;;4.14;100.00;103547.53;5091171;28;20046;-77
2021/12/17 05:58:06;;;;;;;8.77;3.58;;;;;;;4.06;100.00;103542.50;5091332;28;20452;-77
2021/12/17 06:00:32;;;;;;;9.27;3.13;;;;;;;4.04;100.00;103530.25;5091211;28;20032;-77
2021/12/17 06:03:18;;;;;;;10.27;2.80;;;;;;;4.04;100.00;103531.13;5077021;28;20035;-76
2021/12/17 06:05:55;;;;;;;9.32;3.40;;;;;;;4.10;100.00;103546.78;5075967;28;20062;-76
2021/12/17 06:08:20;;;;;;;8.27;3.17;;;;;;;4.00;100.00;103532.13;5091454;28;20028;-83
2021/12/17 06:10:46;;;;;;;7.27;2.80;;;;;;;4.02;100.00;103525.00;5091680;28;20116;-83
2021/12/17 06:13:12;;;;;;;9.55;3.85;;;;;;;4.03;100.00;103529.41;5091728;28;20092;-83
2021/12/17 06:15:37;;;;;;;7.95;3.65;;;;;;;3.96;100.00;103514.66;5091386;28;20043;-84
2021/12/17 06:18:03;;;;;;;7.93;3.90;;;;;;;3.97;100.00;103519.03;5074841;28;20131;-83
2021/12/17 06:20:28;;;;;;;9.52;3.13;;;;;;;4.00;100.00;103530.38;5109484;28;20118;-83
2021/12/17 06:22:58;;;;;;;9.43;3.90;;;;;;;3.92;100.00;103526.25;5075453;28;20521;-82
2021/12/17 06:25:24;;;;;;;7.95;3.50;;;;;;;3.89;100.00;103519.28;5091338;28;20035;-83
2021/12/17 06:27:49;;;;;;;13.38;4.30;;;;;;;3.89;100.00;103521.06;5074726;28;20031;-84
2021/12/17 06:30:16;;;;;;;9.77;3.22;;;;;;;3.75;100.00;103492.47;5074532;28;20039;-84
2021/12/17 06:32:42;;;;;;;12.02;4.35;;;;;;;3.80;100.00;103503.75;5074625;28;20101;-83
2021/12/17 06:35:09;;;;;;;10.45;3.15;;;;;;;3.83;100.00;103513.34;5091519;28;20047;-83
2021/12/17 06:37:35;;;;;;;13.38;3.22;;;;;;;3.84;100.00;103522.97;5109205;28;20031;-83
2021/12/17 06:40:02;;;;;;;;;;;;;;;3.75;100.00;103519.75;5091992;28;20452;-83
2021/12/17 06:42:28;;;;;;;11.07;3.58;;;;;;;3.69;100.00;103517.28;5074564;28;19916;-83
2021/12/17 06:44:59;;;;;;;10.60;3.75;;;;;;;3.71;100.00;103526.03;5092109;28;20032;-83
2021/12/17 06:47:28;;;;;;;22.88;4.95;;;;;;;3.81;100.00;103547.75;5078417;28;20070;-83
2021/12/17 07:11:16;;;;;;;13.80;5.63;;;;;;;3.88;100.00;103567.75;5095312;28;20031;-84
2021/12/17 07:20:00;;;;;;;15.80;5.38;;;;;;;3.90;100.00;103595.00;5095556;28;20035;-83
2021/12/17 07:40:51;;;;;;;20.25;6.22;;;;;;;3.78;100.00;103554.00;5033795;28;20029;-85
2021/12/17 07:43:37;;;;;;;18.50;7.10;;;;;;;3.89;100.00;103560.72;5082852;28;20050;-86
2021/12/17 07:46:12;;;;;;;27.25;6.38;;;;;;;3.79;100.00;103550.44;5094829;28;20469;-85
2021/12/17 07:48:38;;;;;;;31.05;7.25;;;;;;;3.67;100.00;103537.59;5094520;28;20024;-84
2021/12/17 07:51:12;;;;;;;21.23;6.63;;;;;;;3.68;100.00;103552.56;5078967;28;20035;-84
2021/12/17 07:53:56;;;;;;;40.45;7.22;;;;;;;3.62;100.00;103547.47;5081393;28;20123;-85
2021/12/17 07:56:26;;;;;;;28.35;7.50;;;;;;;3.62;100.00;103558.03;5095902;28;20038;-85
2021/12/17 07:58:58;;;;;;;28.08;7.55;;;;;;;3.58;100.00;103556.38;5096063;28;20040;-85
2021/12/17 08:01:24;;;;;;;25.50;6.95;;;;;;;3.53;100.00;103564.47;5095425;28;20108;-84
2021/12/17 08:03:51;;;;;;;36.47;8.25;;;;;;;3.59;100.00;103571.34;5078006;28;20030;-83
2021/12/17 08:06:42;;;;;;;33.88;8.57;;;;;;;3.57;100.00;103587.25;5109464;28;20046;-83
2021/12/17 08:09:15;;;;;;;35.35;8.85;;;;;;;3.62;100.00;103616.16;5094453;28;20113;-84
2021/12/17 08:11:41;;;;;;;31.58;8.82;;;;;;;3.56;100.00;103608.44;5093936;28;20039;-84
2021/12/17 08:14:12;;;;;;;34.35;8.52;;;;;;;3.62;100.00;103605.59;5093682;28;20055;-84
2021/12/17 08:16:56;;;;;;;24.85;8.00;;;;;;;3.68;100.00;103639.75;5093971;28;20140;-83
2021/12/17 08:30:07;;;;;;;;;;;;;;;3.62;100.00;103624.09;5094620;28;20126;-83
2021/12/17 08:32:35;;;;;;;21.42;7.80;;;;;;;3.67;100.00;103634.50;5093704;28;19923;-83
2021/12/17 08:35:04;;;;;;;31.45;7.40;;;;;;;3.64;100.00;103630.19;5093890;28;20023;-82
2021/12/17 08:37:31;;;;;;;27.90;7.43;;;;;;;3.68;100.00;103638.91;5077048;28;20152;-84
2021/12/17 08:39:59;;;;;;;22.52;7.22;;;;;;;3.76;100.00;103647.44;5077355;28;20472;-83
2021/12/17 08:42:35;;;;;;;19.15;6.70;;;;;;;3.76;100.00;103640.38;5093859;28;20131;-83
2021/12/17 08:45:08;;;;;;;15.50;6.00;;;;;;;3.83;100.00;103640.19;5076699;28;20046;-84
2021/12/17 08:47:47;;;;;;;30.75;9.02;;;;;;;3.86;100.00;103633.03;5095447;28;20039;-84
2021/12/17 08:50:15;;;;;;;25.58;8.02;;;;;;;3.97;100.00;103648.56;5076842;28;20028;-84
2021/12/17 08:52:41;;;;;;;25.77;6.65;;;;;;;3.89;100.00;103629.44;5076391;28;20028;-84
2021/12/17 08:55:10;;;;;;;21.58;7.43;;;;;;;3.90;100.00;103629.38;5093391;28;20102;-84
2021/12/17 08:57:36;;;;;;;27.25;7.47;;;;;;;3.95;100.00;103640.66;5093505;28;20376;-84
2021/12/17 09:00:08;;;;;;;21.35;5.85;;;;;;;3.94;100.00;103640.72;5093303;28;20470;-84
2021/12/17 09:03:03;;;;;;;31.75;6.70;;;;;;;3.90;100.00;103641.72;5101136;28;20036;-84
2021/12/17 09:05:57;;;;;;;23.23;7.15;;;;;;;3.90;100.00;103645.25;5084055;28;20048;-84
2021/12/17 09:08:31;;;;;;;36.22;8.70;;;;;;;3.83;100.00;103641.06;5093227;28;20081;-85
2021/12/17 09:11:00;;;;;;;21.70;6.32;;;;;;;3.89;100.00;103664.66;5092937;28;20487;-84
2021/12/17 09:13:43;;;;;;;37.47;8.88;;;;;;;3.88;100.00;103654.13;5092643;28;20031;-83
2021/12/17 09:16:11;;;;;;;25.35;7.40;;;;;;;3.95;100.00;103663.59;5076556;28;20093;-84
2021/12/17 09:18:37;;;;;;;;;;;;;;;3.98;100.00;103660.84;5093075;28;20016;-82
2021/12/17 09:21:16;;;;;;;31.73;7.57;;;;;;;4.00;100.00;103661.66;5077394;28;20006;-84
2021/12/17 09:23:58;;;;;;;33.45;9.20;;;;;;;4.06;100.00;103665.91;5092455;28;20170;-85
2021/12/17 09:26:28;;;;;;;31.67;7.10;;;;;;;4.05;100.00;103657.13;5092857;28;20379;-84
2021/12/17 09:28:54;;;;;;;35.10;9.02;;;;;;;4.05;100.00;103666.81;5075683;28;20357;-85
2021/12/17 09:31:19;;;;;;;35.03;9.07;;;;;;;4.11;100.00;103667.50;5075982;28;20463;-84
2021/12/17 09:33:49;;;;;;;24.08;7.70;;;;;;;4.15;100.00;103677.06;5074692;28;20178;-84
2021/12/17 09:36:14;;;;;;;30.45;9.52;;;;;;;4.19;100.00;103676.06;5110261;28;20361;-84
2021/12/17 09:38:40;;;;;;;26.67;8.30;;;;;;;4.26;100.00;103683.78;5092470;28;20302;-84
2021/12/17 09:41:06;;;;;;;43.63;9.70;;;;;;;4.22;100.00;103685.66;5075640;28;20502;-84
2021/12/17 09:43:36;;;;;;;;;;;;;;;4.29;100.00;103684.56;5092758;28;20296;-84
2021/12/17 09:46:05;;;;;;;53.38;8.48;;;;;;;4.33;100.00;103687.94;5110664;28;19907;-85
2021/12/17 09:48:32;;;;;;;22.88;6.88;;;;;;;4.33;100.00;103698.53;5092896;28;20118;-85
2021/12/17 09:50:58;;;;;;;29.15;6.43;;;;;;;4.23;100.00;103682.94;5092876;28;20085;-85
2021/12/17 09:53:24;;;;;;;23.20;6.60;;;;;;;4.25;100.00;103680.28;5092222;28;20073;-84
2021/12/17 09:55:50;;;;;;;21.48;7.15;;;;;;;4.37;100.00;103695.72;5074808;28;20039;-85
2021/12/17 09:58:16;;;;;;;24.05;7.28;;;;;;;4.34;100.00;103674.69;5092494;28;20457;-84
2021/12/17 10:00:41;;;;;;;24.13;6.03;;;;;;;4.39;100.00;103675.38;5076010;28;20023;-85
2021/12/17 10:03:08;;;;;;;34.35;7.00;;;;;;;4.46;100.00;103676.06;5110119;28;20035;-85
2021/12/17 10:05:35;;;;;;;22.75;6.40;;;;;;;4.43;100.00;103673.53;5091938;28;20039;-85
2021/12/17 10:08:13;;;;;;;22.50;5.55;;;;;;;4.45;100.00;103663.75;5090533;28;20483;-83
2021/12/17 10:10:59;;;;;;;23.70;6.82;;;;;;;4.48;100.00;103650.41;5109810;28;20031;-86
2021/12/17 10:13:33;;;;;;;13.45;4.40;;;;;;;4.45;100.00;103634.66;5109533;28;20043;-86
2021/12/17 10:16:07;;;;;;;16.58;5.20;;;;;;;4.49;100.00;103630.97;5109790;28;20032;-86
2021/12/17 10:18:39;;;;;;;11.88;5.10;;;;;;;4.40;100.00;103602.19;5091489;28;20057;-84
2021/12/17 10:21:26;;;;;;;11.32;4.03;;;;;;;4.42;100.00;103600.34;5091524;28;20461;-84
2021/12/17 10:23:54;;;;;;;11.95;4.43;;;;;;;4.53;100.00;103616.72;5091015;28;20112;-84
2021/12/17 10:26:21;;;;;;;9.93;4.25;;;;;;;4.57;100.00;103618.34;5109691;28;20046;-83
2021/12/17 10:28:57;;;;;;;9.98;3.55;;;;;;;4.65;100.00;103611.00;5074670;28;20031;-84
2021/12/17 10:31:24;;;;;;;13.48;5.65;;;;;;;4.71;100.00;103593.19;5109477;28;20100;-83
2021/12/17 10:33:54;;;;;;;12.60;4.13;;;;;;;4.73;100.00;103586.03;5073862;28;20062;-82
2021/12/17 10:36:43;;;;;;;10.07;4.03;;;;;;;4.68;100.00;103572.97;5074393;28;20123;-84
2021/12/17 10:39:24;;;;;;;10.77;4.32;;;;;;;4.69;100.00;103560.63;5091448;28;20483;-83
2021/12/17 10:41:50;;;;;;;11.20;4.05;;;;;;;4.77;100.00;103553.25;5091341;28;20045;-83
2021/12/17 10:44:16;;;;;;;9.38;4.00;;;;;;;4.72;100.00;103547.28;5074463;28;20449;-83
2021/12/17 10:47:05;;;;;;;11.60;4.55;;;;;;;4.82;100.00;103556.59;5092138;28;20039;-83
2021/12/17 10:49:31;;;;;;;8.93;3.88;;;;;;;4.72;100.00;103541.97;5091121;28;20050;-83
2021/12/17 10:52:05;;;;;;;12.60;5.22;;;;;;;4.76;100.00;103538.31;5109333;28;20028;-82
2021/12/17 10:54:32;;;;;;;15.43;4.22;;;;;;;4.88;100.00;103556.38;5073858;28;20047;-82
2021/12/17 10:56:58;;;;;;;12.63;5.07;;;;;;;4.98;100.00;103565.69;5109100;28;20313;-83
2021/12/17 10:59:34;;;;;;;12.15;4.28;;;;;;;4.97;100.00;103569.28;5091033;28;20469;-83
2021/12/17 11:02:05;;;;;;;8.48;3.80;;;;;;;5.05;100.00;103590.16;5091119;28;20035;-83
2021/12/17 11:04:36;;;;;;;9.10;3.75;;;;;;;5.07;100.00;103581.25;5074322;28;20062;-83
2021/12/17 11:07:14;;;;;;;15.85;5.43;;;;;;;5.06;100.00;103576.03;5074247;28;20061;-83
2021/12/17 11:09:45;;;;;;;9.13;4.50;;;;;;;5.12;100.00;103593.44;5108836;28;20421;-84
2021/12/17 11:12:12;;;;;;;12.45;4.45;;;;;;;5.24;100.00;103598.28;5074072;28;20034;-82
2021/12/17 11:14:38;;;;;;;13.10;6.15;;;;;;;5.24;100.00;103577.97;5090204;28;20461;-82
2021/12/17 11:17:04;;;;;;;10.82;4.43;;;;;;;5.25;100.00;103569.09;5090669;28;20081;-82
2021/12/17 11:19:31;;;;;;;10.27;5.18;;;;;;;5.27;100.00;103577.00;5090585;28;20031;-80
2021/12/17 11:21:57;;;;;;;12.90;5.35;;;;;;;5.26;100.00;103562.00;5090535;28;20338;-82
2021/12/17 11:24:23;;;;;;;13.40;5.00;;;;;;;5.27;100.00;103545.22;5090378;28;20532;-83
2021/12/17 11:26:49;;;;;;;14.52;5.00;;;;;;;5.36;100.00;103552.81;5108400;28;20130;-81
2021/12/17 11:29:18;;;;;;;11.95;4.78;;;;;;;5.38;100.00;103542.97;5090195;28;20040;-82
2021/12/17 11:31:43;;;;;;;13.85;5.75;;;;;;;5.39;100.00;103538.56;5108916;28;20377;-82
2021/12/17 11:34:10;;;;;;;12.67;5.43;;;;;;;5.49;100.00;103546.06;5076788;28;20042;-80
2021/12/17 11:36:35;;;;;;;12.80;6.03;;;;;;;5.48;100.00;103533.75;5077325;28;20288;-84
2021/12/17 11:39:19;;;;;;;12.55;5.82;;;;;;;5.38;100.00;103521.78;5077158;28;20032;-82
2021/12/17 11:42:29;;;;;;;12.02;5.18;;;;;;;5.51;100.00;103538.06;5094104;28;20038;-82
2021/12/17 11:45:23;;;;;;;11.70;5.38;;;;;;;5.52;100.00;103544.22;5092888;28;20169;-80
2021/12/17 11:47:41;;;;;;;18.17;6.63;;;;;;;5.54;100.00;103537.94;5111736;28;20032;-83
2021/12/17 11:50:10;;;;;;;15.20;6.60;;;;;;;5.54;100.00;103532.63;5093910;28;20036;-80
2021/12/17 11:52:35;;;;;;;16.40;7.28;;;;;;;5.56;100.00;103535.25;5111675;28;20118;-83
2021/12/17 11:55:23;;;;;;;19.83;7.18;;;;;;;5.54;100.00;103526.47;5093545;28;20114;-82
2021/12/17 11:57:50;;;;;;;15.13;5.93;;;;;;;5.55;100.00;103529.09;5093500;28;20096;-82
2021/12/17 12:00:24;;;;;;;12.43;5.88;;;;;;;5.63;100.00;103536.72;5076954;28;20040;-83
2021/12/17 12:02:51;;;;;;;12.10;4.95;;;;;;;5.65;100.00;103546.31;5077260;28;20050;-83
2021/12/17 12:05:34;;;;;;;13.02;5.47;;;;;;;5.70;100.00;103538.19;5077700;28;20032;-83
2021/12/17 12:08:50;;;;;;;18.50;7.10;;;;;;;5.69;100.00;103523.22;5111887;28;20028;-81
2021/12/17 12:11:42;;;;;;;18.05;6.95;;;;;;;5.68;100.00;103537.38;5093675;28;20042;-82
2021/12/17 12:14:31;;;;;;;17.77;6.53;;;;;;;5.65;100.00;103538.38;5089348;28;20467;-84
2021/12/17 12:16:56;;;;;;;24.30;5.65;;;;;;;5.65;100.00;103550.78;5093611;28;20101;-81
2021/12/17 12:19:22;;;;;;;11.67;5.20;;;;;;;5.71;100.00;103566.41;5093583;28;20051;-82
2021/12/17 12:22:04;;;;;;;10.07;4.03;;;;;;;5.68;100.00;103562.09;5111881;28;20046;-82
2021/12/17 12:24:29;;;;;;;7.65;3.45;;;;;;;5.76;100.00;103572.41;5093274;28;20269;-82
2021/12/17 12:26:55;;;;;;;8.05;4.03;;;;;;;5.82;100.00;103576.59;5093486;28;20507;-82
2021/12/17 12:29:23;;;;;;;13.10;4.13;;;;;;;5.79;100.00;103569.63;5111094;28;20039;-82
2021/12/17 12:32:19;;;;;;;7.28;2.78;;;;;;;5.78;100.00;103570.53;5109533;28;20303;-82
2021/12/17 12:34:45;;;;;;;9.43;3.45;;;;;;;5.80;100.00;103573.13;5091317;28;20032;-82
2021/12/17 12:37:16;;;;;;;12.20;4.38;;;;;;;5.85;100.00;103590.59;5091823;28;20066;-82
2021/12/17 12:40:03;;;;;;;11.25;5.35;;;;;;;5.83;100.00;103597.75;5091566;28;20497;-82
2021/12/17 12:42:35;;;;;;;14.50;5.80;;;;;;;5.86;100.00;103608.22;5108885;28;20051;-81
2021/12/17 12:45:03;;;;;;;14.52;5.35;;;;;;;5.88;100.00;103593.13;5074119;28;20027;-81
2021/12/17 12:47:31;;;;;;;11.88;5.25;;;;;;;5.93;100.00;103609.69;5093138;28;20102;-82
2021/12/17 12:50:10;;;;;;;13.32;5.85;;;;;;;5.85;100.00;103595.03;5092966;28;20104;-82
2021/12/17 12:52:55;;;;;;;9.65;4.05;;;;;;;5.85;100.00;103595.91;5093281;28;20031;-82
2021/12/17 12:55:43;;;;;;;8.13;3.70;;;;;;;5.96;100.00;103606.09;5078278;28;20043;-81
2021/12/17 12:58:23;;;;;;;7.10;2.85;;;;;;;5.95;100.00;103600.84;5093772;28;20492;-81
2021/12/17 13:00:54;;;;;;;6.88;3.47;;;;;;;5.89;100.00;103597.50;5092524;28;20042;-82
2021/12/17 13:03:44;;;;;;;8.13;3.83;;;;;;;5.88;100.00;103594.91;5075908;28;20346;-82
2021/12/17 13:06:16;;;;;;;7.15;3.08;;;;;;;5.82;100.00;103606.63;5091930;28;20118;-81
2021/12/17 13:08:42;;;;;;;7.82;3.35;;;;;;;5.88;100.00;103611.69;5110203;28;20118;-81
2021/12/17 13:11:08;;;;;;;6.43;3.13;;;;;;;5.87;100.00;103604.63;5092305;28;20123;-81
2021/12/17 13:14:03;;;;;;;6.93;2.90;;;;;;;5.99;100.00;103621.00;5075231;28;20062;-82
2021/12/17 13:21:45;;;;;;;7.53;3.38;;;;;;;5.96;100.00;103639.72;5092287;28;20039;-81
2021/12/17 13:24:15;;;;;;;6.75;3.55;;;;;;;6.05;100.00;103650.81;5091987;28;20039;-81
2021/12/17 13:26:44;;;;;;;6.82;3.53;;;;;;;6.06;100.00;103641.06;5093261;28;20037;-82
2021/12/17 13:29:15;;;;;;;8.75;3.65;;;;;;;6.00;100.00;103636.03;5092166;28;20039;-81
2021/12/17 13:31:57;;;;;;;9.20;4.30;;;;;;;6.02;100.00;103637.69;5092013;28;20031;-81
2021/12/17 13:34:30;;;;;;;8.15;3.85;;;;;;;6.05;100.00;103649.94;5109675;28;20036;-80
2021/12/17 13:37:15;;;;;;;7.50;3.83;;;;;;;6.02;100.00;103647.44;5092095;28;20035;-81
2021/12/17 13:39:54;;;;;;;9.05;4.78;;;;;;;6.04;100.00;103657.06;5091925;28;20317;-83
2021/12/17 13:42:32;;;;;;;8.88;4.43;;;;;;;6.06;100.00;103670.22;5109804;28;20035;-82
2021/12/17 13:45:10;;;;;;;9.73;4.68;;;;;;;6.09;100.00;103664.81;5074620;28;20042;-81
2021/12/17 13:47:40;;;;;;;9.20;4.50;;;;;;;6.12;100.00;103662.91;5092247;28;20472;-81
2021/12/17 13:50:05;;;;;;;14.32;5.90;;;;;;;6.07;100.00;103658.72;5110001;28;20042;-83
2021/12/17 13:52:33;;;;;;;8.67;4.50;;;;;;;6.07;100.00;103658.72;5092603;28;20587;-83
2021/12/17 13:55:01;;;;;;;9.95;5.22;;;;;;;6.10;100.00;103663.88;5090826;28;20043;-81
2021/12/17 13:57:31;;;;;;;8.70;4.60;;;;;;;6.07;100.00;103662.22;5109704;28;20505;-82
2021/12/17 14:00:08;;;;;;;8.38;3.90;;;;;;;6.13;100.00;103666.41;5074743;28;20360;-82
2021/12/17 14:02:38;;;;;;;9.88;4.60;;;;;;;6.08;100.00;103665.75;5109557;28;20036;-83
2021/12/17 14:05:08;;;;;;;11.15;5.75;;;;;;;6.15;100.00;103664.56;5091395;28;20035;-82
2021/12/17 14:07:36;;;;;;;8.77;4.63;;;;;;;6.07;100.00;103658.72;5091610;28;20614;-82
2021/12/17 14:10:19;;;;;;;9.85;4.95;;;;;;;6.09;100.00;103675.44;5074541;28;20032;-81
2021/12/17 14:12:45;;;;;;;15.77;6.28;;;;;;;6.10;100.00;103669.19;5109240;28;20097;-83
2021/12/17 14:15:20;;;;;;;11.30;5.25;;;;;;;6.11;100.00;103676.22;5092008;28;20074;-84
2021/12/17 14:17:53;;;;;;;12.88;5.35;;;;;;;6.09;100.00;103667.47;5091923;28;20066;-85
2021/12/17 14:20:24;;;;;;;12.75;5.68;;;;;;;6.08;100.00;103663.94;5092263;28;20118;-88
2021/12/17 14:23:00;;;;;;;15.40;5.38;;;;;;;6.09;100.00;103673.63;5110185;28;20028;-84
2021/12/17 14:25:29;;;;;;;10.38;5.18;;;;;;;6.11;100.00;103676.22;5092179;28;20043;-84